Time;durP1;ratioP1;P1;durP2;ratioP2;P2;SDS_P1;SDS_P2;PMS_P1;PMS_P2;Temp;Humidity;BMP_temperature;BMP_pressure;BME280_temperature;BME280_humidity;BME280_pressure;Samples;Min_cycle;Max_cycle;Signal;HPM_P1;HPM_P2
2023/11/23 00:00:24;;;;;;;7.63;5.97;;;2.80;99.90;;;-141.84;69.22;18588.53;5011040;28;20229;-63
2023/11/23 00:02:54;;;;;;;8.23;5.93;;;2.90;99.90;;;-141.84;70.13;18606.81;5010634;28;20745;-64
2023/11/23 00:05:22;;;;;;;7.17;5.70;;;2.90;99.90;;;-141.84;69.18;18627.13;5010561;28;20642;-63
2023/11/23 00:07:50;;;;;;;6.80;5.60;;;2.90;99.90;;;-141.84;69.11;18623.06;5010959;28;20714;-63
2023/11/23 00:10:19;;;;;;;6.73;5.30;;;2.90;99.90;;;-141.84;69.34;18643.38;5010395;28;20321;-63
2023/11/23 00:12:47;;;;;;;7.23;5.33;;;2.90;99.90;;;-141.84;69.04;18629.16;5010104;28;20234;-64
2023/11/23 00:15:15;;;;;;;6.37;5.27;;;2.90;99.90;;;-141.84;68.84;18619.00;5010330;28;20287;-63
2023/11/23 00:17:43;;;;;;;6.73;5.47;;;2.90;99.90;;;-141.84;68.85;18606.81;5010514;28;20258;-63
2023/11/23 00:20:13;;;;;;;6.20;5.30;;;2.90;99.90;;;-141.84;68.64;18606.81;5010630;28;20215;-64
2023/11/23 00:22:42;;;;;;;8.63;5.73;;;2.90;99.90;;;-141.84;68.47;18612.91;5010992;28;20569;-63
2023/11/23 00:25:13;;;;;;;4.70;4.20;;;2.90;99.90;;;-141.84;68.70;18623.06;5010229;28;20726;-64
2023/11/23 00:27:42;;;;;;;5.77;5.13;;;2.90;99.90;;;-141.84;67.93;18621.03;5010160;28;20226;-64
2023/11/23 00:30:11;;;;;;;6.73;5.33;;;3.00;99.90;;;-141.84;68.11;18633.22;5010355;28;20329;-64
2023/11/23 00:32:40;;;;;;;6.70;5.33;;;3.00;99.90;;;-141.84;67.37;18651.50;5010276;28;20262;-63
2023/11/23 00:35:09;;;;;;;5.73;4.53;;;3.00;99.90;;;-141.84;67.39;18635.25;5010305;28;20202;-64
2023/11/23 00:37:39;;;;;;;5.77;4.60;;;3.00;99.90;;;-141.84;67.66;18614.94;5010924;28;20246;-64
2023/11/23 00:40:08;;;;;;;5.07;4.53;;;3.00;99.90;;;-141.84;67.63;18647.44;5010000;28;20233;-63
2023/11/23 00:42:36;;;;;;;6.77;4.43;;;3.00;99.90;;;-141.84;67.41;18594.63;5009969;28;20700;-63
2023/11/23 00:45:07;;;;;;;6.17;4.83;;;3.10;99.90;;;-141.84;67.41;18616.97;5010239;28;20258;-64
2023/11/23 00:47:35;;;;;;;5.47;4.33;;;3.10;99.90;;;-141.84;66.98;18639.31;5010381;28;20241;-63
2023/11/23 00:50:05;;;;;;;6.47;4.40;;;3.10;99.90;;;-141.84;66.81;18623.06;5010367;28;20206;-63
2023/11/23 00:52:33;;;;;;;5.60;4.37;;;3.10;99.90;;;-141.84;66.82;18627.13;5010627;28;20640;-63
2023/11/23 00:55:04;;;;;;;6.47;4.97;;;3.20;99.90;;;-141.84;66.69;18614.94;5010049;28;20281;-64
2023/11/23 00:57:34;;;;;;;5.07;4.10;;;3.20;99.90;;;-141.84;66.77;18614.94;5000148;28;20224;-63
2023/11/23 01:00:05;;;;;;;5.20;4.00;;;3.20;99.90;;;-141.84;66.53;18627.13;5009936;28;20697;-62
2023/11/23 01:02:34;;;;;;;5.40;4.40;;;3.20;99.90;;;-141.84;66.63;18627.13;5010381;28;20317;-63
2023/11/23 01:05:03;;;;;;;5.07;4.13;;;3.20;99.90;;;-141.84;65.81;18659.63;5010236;28;20212;-64
2023/11/23 01:07:31;;;;;;;5.60;3.70;;;3.30;99.90;;;-141.84;65.71;18651.50;5010514;28;20245;-63
2023/11/23 01:09:59;;;;;;;4.10;3.63;;;3.30;99.90;;;-141.84;65.32;18631.19;5008357;28;20229;-63
2023/11/23 01:12:29;;;;;;;5.00;4.13;;;3.30;99.90;;;-141.84;65.04;18657.59;5009605;28;20254;-64
2023/11/23 01:14:57;;;;;;;5.33;3.93;;;3.30;99.90;;;-141.84;65.04;18635.25;5009670;28;20308;-63
2023/11/23 01:17:25;;;;;;;4.33;3.50;;;3.30;99.90;;;-141.84;65.09;18637.28;5009794;28;20233;-63
2023/11/23 01:19:53;;;;;;;5.53;3.90;;;3.50;99.90;;;-141.84;65.40;18651.50;5010393;28;20318;-64
2023/11/23 01:22:21;;;;;;;4.37;3.80;;;3.30;99.90;;;-141.84;64.46;18635.25;5009932;28;20231;-64
2023/11/23 01:24:49;;;;;;;4.03;3.53;;;3.40;99.90;;;-141.84;64.90;18639.31;5009873;28;20250;-63
2023/11/23 01:27:17;;;;;;;4.47;3.90;;;3.40;99.90;;;-141.84;64.17;18633.22;5009853;28;20327;-63
2023/11/23 01:29:47;;;;;;;4.23;3.63;;;3.40;99.90;;;-141.84;64.81;18633.22;5009705;28;20226;-63
2023/11/23 01:32:15;;;;;;;4.70;3.67;;;3.50;99.90;;;-141.84;64.76;18700.25;5009649;28;20228;-63
2023/11/23 01:34:43;;;;;;;4.20;3.40;;;3.50;99.90;;;-141.84;64.95;18647.44;5010072;28;20236;-63
2023/11/23 01:37:11;;;;;;;4.50;3.63;;;3.50;99.90;;;-141.84;64.98;18627.13;5009742;28;20238;-63
2023/11/23 01:39:40;;;;;;;5.13;3.57;;;3.50;99.90;;;-141.84;64.48;18635.25;5011010;28;20265;-63
2023/11/23 01:42:08;;;;;;;4.27;3.37;;;3.50;99.90;;;-141.84;65.04;18633.22;5013072;28;20231;-63
2023/11/23 01:44:36;;;;;;;3.90;3.03;;;3.50;99.90;;;-141.84;64.91;18669.78;5013298;28;20221;-63
2023/11/23 01:47:09;;;;;;;3.97;3.23;;;3.50;99.90;;;-141.84;64.02;18635.25;5013094;28;20211;-63
2023/11/23 01:49:42;;;;;;;5.80;3.60;;;3.50;99.90;;;-141.84;63.89;18647.44;5013730;28;20213;-63
2023/11/23 01:52:11;;;;;;;4.27;3.30;;;3.50;99.90;;;-141.84;63.45;18645.41;5013055;28;20317;-63
2023/11/23 01:54:40;;;;;;;3.30;3.00;;;3.70;99.90;;;-141.84;63.60;18655.56;5012795;28;20361;-63
2023/11/23 01:57:09;;;;;;;3.90;3.43;;;3.60;99.90;;;-141.84;63.73;18651.50;5012569;28;20249;-63
2023/11/23 01:59:38;;;;;;;3.73;3.00;;;3.60;99.90;;;-141.84;63.33;18651.50;5012873;28;20231;-64
2023/11/23 02:02:08;;;;;;;5.37;2.93;;;3.70;99.90;;;-141.84;62.74;18657.59;5013149;28;20260;-63
2023/11/23 02:04:37;;;;;;;4.27;3.23;;;3.70;99.90;;;-141.84;63.31;18645.41;5013345;28;20388;-64
2023/11/23 02:07:05;;;;;;;4.07;3.40;;;3.70;99.90;;;-141.84;63.10;18684.00;5012589;28;20230;-64
2023/11/23 02:09:34;;;;;;;3.10;2.80;;;3.70;99.90;;;-141.84;62.25;18675.88;5013008;28;20232;-64
2023/11/23 02:12:06;;;;;;;3.70;3.10;;;3.80;99.90;;;-141.84;62.76;18663.69;5016750;28;20331;-64
2023/11/23 02:14:36;;;;;;;3.57;2.97;;;3.80;99.90;;;-141.84;62.29;18688.06;5018509;28;20240;-63
2023/11/23 02:17:17;;;;;;;3.80;2.97;;;3.80;99.90;;;-141.84;61.33;18653.53;5012872;28;20190;-63
2023/11/23 02:19:46;;;;;;;4.00;3.07;;;3.90;99.90;;;-141.84;61.51;18663.69;5012952;28;20242;-64
2023/11/23 02:22:15;;;;;;;3.87;2.80;;;3.90;99.90;;;-141.84;61.28;18700.25;5012877;28;20268;-63
2023/11/23 02:25:01;;;;;;;3.10;2.70;;;3.90;99.90;;;-141.84;61.01;18663.69;5012742;28;20327;-63
2023/11/23 02:27:30;;;;;;;5.13;3.10;;;3.90;99.90;;;-141.84;60.75;18684.00;5012307;28;20229;-64
2023/11/23 02:29:58;;;;;;;2.93;2.63;;;4.00;99.90;;;-141.84;60.58;18669.78;5012153;28;20768;-63
2023/11/23 02:32:27;;;;;;;3.30;2.80;;;3.90;99.90;;;-141.84;61.13;18696.19;5012075;28;20708;-64
2023/11/23 02:34:55;;;;;;;3.50;2.63;;;3.90;99.90;;;-141.84;60.96;18688.06;5012997;28;20211;-64
2023/11/23 02:37:23;;;;;;;2.97;2.57;;;4.00;99.90;;;-141.84;60.87;18679.94;5012527;28;20292;-64
2023/11/23 02:39:53;;;;;;;3.00;2.70;;;4.00;99.90;;;-141.84;61.45;18712.47;5012109;28;20666;-63
2023/11/23 02:42:21;;;;;;;3.23;2.73;;;3.90;99.90;;;-141.84;61.91;18690.09;5018314;28;20228;-65
2023/11/23 02:44:49;;;;;;;3.03;2.73;;;3.90;99.90;;;-141.84;62.29;18679.94;5031810;28;20229;-63
2023/11/23 02:47:18;;;;;;;3.37;2.60;;;3.90;99.90;;;-141.84;62.70;18696.19;5031825;28;20263;-63
2023/11/23 02:49:48;;;;;;;3.70;2.70;;;3.90;99.90;;;-141.84;63.17;18692.13;5032536;28;20654;-63
2023/11/23 02:52:16;;;;;;;3.03;2.67;;;3.90;99.90;;;-141.84;62.29;18679.94;5018617;28;20228;-63
2023/11/23 02:54:44;;;;;;;2.80;2.60;;;3.90;99.90;;;-141.84;63.00;18700.25;5012152;28;20233;-63
2023/11/23 02:57:16;;;;;;;3.30;3.00;;;3.90;99.90;;;-141.84;62.96;18675.88;5011670;28;20233;-64
2023/11/23 02:59:45;;;;;;;3.23;2.93;;;3.90;99.90;;;-141.84;63.39;18677.91;5012018;28;20767;-63
2023/11/23 03:02:13;;;;;;;3.73;2.80;;;3.90;99.90;;;-141.84;61.64;18698.22;5011887;28;20414;-64
2023/11/23 03:04:41;;;;;;;4.27;2.90;;;4.00;99.90;;;-141.84;61.77;18692.13;5012019;28;20229;-64
2023/11/23 03:07:10;;;;;;;3.50;2.73;;;3.90;99.90;;;-141.84;61.50;18692.13;5011457;28;20227;-63
2023/11/23 03:09:38;;;;;;;3.27;2.70;;;4.00;99.90;;;-141.84;61.46;18677.91;5011362;28;21018;-63
2023/11/23 03:12:07;;;;;;;4.30;2.73;;;4.00;99.90;;;-141.84;62.05;18663.69;5009431;28;20232;-63
2023/11/23 03:14:37;;;;;;;3.13;2.63;;;3.90;99.90;;;-141.84;63.32;18665.72;5009344;28;20225;-64
2023/11/23 03:17:07;;;;;;;4.17;3.00;;;3.90;99.90;;;-141.84;62.44;18686.03;5011370;28;20685;-64
2023/11/23 03:19:36;;;;;;;3.17;2.87;;;3.90;99.90;;;-141.84;62.72;18667.75;4993310;28;20218;-63
2023/11/23 03:22:05;;;;;;;3.27;2.80;;;3.90;99.90;;;-141.84;62.64;18684.00;4991716;28;20737;-64
2023/11/23 03:24:33;;;;;;;4.53;2.90;;;3.90;99.90;;;-141.84;62.91;18653.53;4991981;28;20313;-64
2023/11/23 03:27:01;;;;;;;3.57;2.90;;;4.00;99.90;;;-141.84;62.96;18673.84;4991557;28;20230;-64
2023/11/23 03:29:29;;;;;;;3.10;2.40;;;4.00;99.90;;;-141.84;62.79;18679.94;5004069;28;20231;-63
2023/11/23 03:31:59;;;;;;;3.23;2.50;;;4.10;99.90;;;-141.84;63.48;18684.00;5011457;28;20328;-63
2023/11/23 03:34:27;;;;;;;3.50;2.40;;;4.00;99.90;;;-141.84;63.69;18659.63;5011668;28;20250;-63
2023/11/23 03:36:56;;;;;;;3.93;2.60;;;4.10;99.90;;;-141.84;63.82;18653.53;5011057;28;20226;-64
2023/11/23 03:39:24;;;;;;;2.77;2.37;;;4.10;99.90;;;-141.84;63.65;18681.97;5011422;28;20330;-63
2023/11/23 03:41:52;;;;;;;2.97;2.60;;;4.10;99.90;;;-141.84;63.50;18692.13;5013510;28;20256;-63
2023/11/23 03:44:21;;;;;;;3.10;2.50;;;4.10;99.90;;;-141.84;62.86;18681.97;5030755;28;20225;-64
2023/11/23 03:46:49;;;;;;;3.10;2.53;;;4.10;99.90;;;-141.84;63.45;18671.81;5031256;28;20205;-64
2023/11/23 03:49:20;;;;;;;2.93;2.60;;;4.30;99.90;;;-141.84;63.89;18708.41;5030635;28;20729;-63
2023/11/23 03:51:49;;;;;;;3.13;2.50;;;4.40;99.90;;;-141.84;64.02;18681.97;5030574;28;20286;-64
2023/11/23 03:54:17;;;;;;;2.83;2.53;;;4.20;99.90;;;-141.84;64.22;18716.53;5030635;28;20257;-64
2023/11/23 03:56:46;;;;;;;2.70;2.33;;;4.30;99.90;;;-141.84;64.20;18708.41;5016732;28;20253;-64
2023/11/23 03:59:14;;;;;;;4.27;2.50;;;4.20;99.90;;;-141.84;63.64;18716.53;5010766;28;20220;-63
2023/11/23 04:01:47;;;;;;;3.83;2.73;;;4.20;99.90;;;-141.84;63.54;18655.56;5010637;28;20260;-63
2023/11/23 04:04:17;;;;;;;2.70;2.50;;;4.30;99.90;;;-141.84;62.86;18710.44;5010783;28;20356;-64
2023/11/23 04:06:45;;;;;;;2.63;2.40;;;4.30;99.90;;;-141.84;63.00;18688.06;5010400;28;20224;-63
2023/11/23 04:09:14;;;;;;;4.20;2.40;;;4.30;99.90;;;-141.84;63.22;18708.41;5010963;28;20249;-64
2023/11/23 04:11:43;;;;;;;3.20;2.50;;;4.40;99.90;;;-141.84;62.88;18718.56;5011477;28;20224;-64
2023/11/23 04:14:12;;;;;;;2.80;2.53;;;4.30;99.90;;;-141.84;62.82;18704.31;5019513;28;20713;-64
2023/11/23 04:16:40;;;;;;;3.13;2.50;;;4.40;99.90;;;-141.84;63.18;18700.25;5010737;28;20737;-63
2023/11/23 04:19:08;;;;;;;2.77;2.27;;;4.40;99.90;;;-141.84;63.26;18663.69;5010406;28;20230;-64
2023/11/23 04:21:38;;;;;;;3.30;2.57;;;4.40;99.90;;;-141.84;64.01;18704.31;5010544;28;20256;-64
2023/11/23 04:24:08;;;;;;;3.03;2.37;;;4.40;99.90;;;-141.84;64.52;18686.03;5010436;28;20249;-64
2023/11/23 04:26:36;;;;;;;3.53;2.50;;;4.40;99.90;;;-141.84;63.96;18692.13;5010591;28;20230;-63
2023/11/23 04:29:04;;;;;;;2.93;2.47;;;4.50;99.90;;;-141.84;63.33;18681.97;5010005;28;20220;-63
2023/11/23 04:31:33;;;;;;;3.27;2.60;;;4.50;99.90;;;-141.84;63.36;18708.41;5010660;28;20718;-64
2023/11/23 04:34:01;;;;;;;2.77;2.33;;;4.50;99.90;;;-141.84;63.10;18704.31;5010239;28;20233;-64
2023/11/23 04:36:29;;;;;;;2.87;2.57;;;4.50;99.90;;;-141.84;64.20;18702.28;5010324;28;20272;-64
2023/11/23 04:39:01;;;;;;;3.07;2.50;;;4.60;99.90;;;-141.84;63.19;18704.31;5010353;28;20253;-63
2023/11/23 04:41:29;;;;;;;3.33;2.70;;;4.60;99.90;;;-141.84;63.94;18710.44;5010098;28;20240;-64
2023/11/23 04:43:57;;;;;;;3.73;2.73;;;4.60;99.90;;;-141.84;64.10;18702.28;5030333;28;20241;-64
2023/11/23 04:46:25;;;;;;;3.87;2.67;;;4.60;99.90;;;-141.84;63.85;18730.75;5030382;28;20217;-63
2023/11/23 04:48:54;;;;;;;3.30;2.73;;;4.60;99.90;;;-141.84;64.38;18712.47;5029856;28;20588;-64
2023/11/23 04:51:22;;;;;;;4.23;2.90;;;4.60;99.90;;;-141.84;64.69;18700.25;5029878;28;20257;-63
2023/11/23 04:53:50;;;;;;;3.07;2.60;;;4.60;99.90;;;-141.84;64.54;18730.75;5029963;28;20229;-64
2023/11/23 04:56:22;;;;;;;4.10;3.00;;;4.60;99.90;;;-141.84;64.33;18704.31;5019937;28;20233;-65
2023/11/23 04:58:50;;;;;;;3.43;2.57;;;4.60;99.90;;;-141.84;65.63;18704.31;4991032;28;20285;-64
2023/11/23 05:01:18;;;;;;;3.00;2.47;;;4.60;99.90;;;-141.84;65.25;18684.00;4990637;28;20280;-65
2023/11/23 05:03:46;;;;;;;3.03;2.43;;;4.60;99.90;;;-141.84;66.34;18728.72;5006902;28;20252;-64
2023/11/23 05:06:15;;;;;;;3.47;2.90;;;4.60;99.90;;;-141.84;65.86;18700.25;5009925;28;20229;-65
2023/11/23 05:08:45;;;;;;;3.87;2.83;;;4.70;99.90;;;-141.84;66.21;18704.31;5010101;28;20230;-64
2023/11/23 05:11:14;;;;;;;3.77;2.70;;;4.70;99.90;;;-141.84;66.43;18714.50;5010227;28;20594;-65
2023/11/23 05:13:43;;;;;;;3.03;2.67;;;4.60;99.90;;;-141.84;67.05;18700.25;5021262;28;20676;-63
2023/11/23 05:16:12;;;;;;;3.00;2.50;;;4.70;99.90;;;-141.84;66.77;18730.75;5013766;28;20241;-64
2023/11/23 05:18:40;;;;;;;3.77;2.67;;;4.80;99.90;;;-141.84;67.59;18712.47;5013739;28;20254;-63
2023/11/23 05:21:11;;;;;;;4.23;3.20;;;4.70;99.90;;;-141.84;68.11;18718.56;5013660;28;20704;-64
2023/11/23 05:23:40;;;;;;;3.43;2.80;;;4.70;99.90;;;-141.84;69.06;18704.31;5013591;28;20237;-63
2023/11/23 05:26:08;;;;;;;5.00;3.13;;;4.70;99.90;;;-141.84;68.88;18726.69;5013665;28;20809;-64
2023/11/23 05:28:36;;;;;;;4.67;4.03;;;4.80;99.90;;;-141.84;69.04;18716.53;5013911;28;20222;-64
2023/11/23 05:31:06;;;;;;;3.63;3.20;;;4.80;99.90;;;-141.84;69.22;18740.91;5013490;28;20258;-64
2023/11/23 05:33:34;;;;;;;4.20;3.27;;;4.80;99.90;;;-141.84;68.69;18740.91;5013548;28;20725;-64
2023/11/23 05:36:02;;;;;;;3.33;3.03;;;5.00;99.90;;;-141.84;69.35;18724.66;5013172;28;20222;-63
2023/11/23 05:38:32;;;;;;;3.83;3.10;;;4.90;99.90;;;-141.84;69.73;18730.75;5013413;28;20229;-63
2023/11/23 05:41:00;;;;;;;3.53;3.00;;;5.00;99.90;;;-141.84;70.15;18765.28;5012881;28;20671;-63
2023/11/23 05:43:28;;;;;;;3.90;3.47;;;5.00;99.90;;;-141.84;69.58;18730.75;5028883;28;20289;-64
2023/11/23 05:45:57;;;;;;;7.97;3.40;;;5.00;99.90;;;-141.84;70.39;18728.72;5032918;28;20323;-64
2023/11/23 05:48:26;;;;;;;3.87;3.33;;;5.00;99.90;;;-141.84;70.36;18747.00;5032940;28;20234;-64
2023/11/23 05:50:55;;;;;;;5.27;3.87;;;5.10;99.90;;;-141.84;71.33;18734.81;5032757;28;20225;-64
2023/11/23 05:53:23;;;;;;;3.67;3.07;;;5.00;99.90;;;-141.84;71.99;18736.84;5032914;28;20229;-64
2023/11/23 05:55:51;;;;;;;4.97;3.37;;;5.00;99.90;;;-141.84;71.82;18740.91;5027014;28;20229;-64
2023/11/23 05:58:19;;;;;;;5.13;3.17;;;5.00;99.90;;;-141.84;71.05;18753.09;5012576;28;20245;-64
2023/11/23 06:00:47;;;;;;;3.43;3.13;;;5.10;99.90;;;-141.84;71.01;18759.19;5012809;28;20709;-63
2023/11/23 06:03:28;;;;;;;3.60;2.77;;;5.10;99.90;;;-141.84;71.43;18777.47;5012796;28;20317;-64
2023/11/23 06:05:56;;;;;;;4.17;3.13;;;5.20;99.90;;;-141.84;71.76;18740.91;5012913;28;20240;-64
2023/11/23 06:08:24;;;;;;;4.47;3.07;;;5.20;99.90;;;-141.84;72.31;18749.03;5012969;28;20276;-64
2023/11/23 06:10:52;;;;;;;4.13;3.13;;;5.20;99.90;;;-141.84;72.83;18736.84;5012957;28;20207;-63
2023/11/23 06:13:21;;;;;;;5.43;3.37;;;5.20;99.90;;;-141.84;73.14;18757.16;5023781;28;20305;-64
2023/11/23 06:15:50;;;;;;;4.57;3.37;;;5.20;99.90;;;-141.84;73.88;18769.34;5012508;28;20722;-64
2023/11/23 06:18:21;;;;;;;3.87;3.30;;;5.20;99.90;;;-141.84;74.01;18759.19;5012725;28;20254;-65
2023/11/23 06:20:51;;;;;;;4.80;3.57;;;5.20;99.90;;;-141.84;74.59;18763.25;5012641;28;20428;-64
2023/11/23 06:23:20;;;;;;;5.13;3.47;;;5.20;99.90;;;-141.84;75.19;18753.09;5012755;28;20237;-64
2023/11/23 06:25:48;;;;;;;4.00;2.77;;;5.20;99.90;;;-141.84;75.30;18777.47;5012481;28;20269;-64
2023/11/23 06:28:17;;;;;;;4.23;3.27;;;5.30;99.90;;;-141.84;75.58;18785.59;5012288;28;20655;-63
2023/11/23 06:30:45;;;;;;;5.93;4.07;;;5.30;99.90;;;-141.84;76.58;18773.41;5007725;28;20726;-63
2023/11/23 06:33:14;;;;;;;5.93;3.70;;;5.30;99.90;;;-141.84;76.51;18781.53;5002992;28;20219;-64
2023/11/23 06:35:42;;;;;;;5.30;3.90;;;5.30;99.90;;;-141.84;76.20;18795.75;4992747;28;20218;-64
2023/11/23 06:38:15;;;;;;;5.40;3.90;;;5.40;99.90;;;-141.84;76.95;18809.97;5010001;28;20278;-65
2023/11/23 06:40:43;;;;;;;5.20;4.00;;;5.30;99.90;;;-141.84;77.65;18807.94;5012676;28;20211;-64
2023/11/23 06:43:11;;;;;;;6.00;4.03;;;5.30;99.90;;;-141.84;77.09;18799.81;5025496;28;20713;-63
2023/11/23 06:45:39;;;;;;;3.93;3.47;;;5.30;99.90;;;-141.84;77.88;18781.53;5031857;28;20229;-64
2023/11/23 06:48:07;;;;;;;4.77;3.63;;;5.40;99.90;;;-141.84;78.01;18773.41;5031992;28;20232;-65
2023/11/23 06:50:35;;;;;;;6.90;3.87;;;5.40;99.90;;;-141.84;77.97;18818.09;4994577;28;20306;-64
2023/11/23 06:53:03;;;;;;;4.47;3.57;;;5.40;99.90;;;-141.84;77.56;18826.25;4992730;28;20209;-64
2023/11/23 06:55:33;;;;;;;4.63;3.83;;;5.50;99.90;;;-141.84;78.28;18814.03;5002914;28;20253;-64
2023/11/23 06:58:02;;;;;;;6.40;4.17;;;5.50;99.90;;;-141.84;78.34;18852.66;5011567;28;20262;-65
2023/11/23 07:00:30;;;;;;;5.13;4.23;;;5.60;99.90;;;-141.84;78.62;18820.16;5011884;28;20260;-64
2023/11/23 07:03:00;;;;;;;7.07;4.77;;;5.60;99.90;;;-141.84;80.23;18838.44;5012019;28;20313;-64
2023/11/23 07:05:29;;;;;;;6.17;4.33;;;5.60;99.90;;;-141.84;80.39;18868.91;5008685;28;20652;-65
2023/11/23 07:07:57;;;;;;;6.10;4.10;;;5.60;99.90;;;-141.84;80.62;18887.19;4996462;28;20242;-62
2023/11/23 07:10:25;;;;;;;6.00;4.27;;;5.70;99.90;;;-141.84;80.60;18897.34;4992285;28;20219;-63
2023/11/23 07:12:56;;;;;;;5.70;4.40;;;5.70;99.90;;;-141.84;80.55;18879.06;5016904;28;20225;-64
2023/11/23 07:15:26;;;;;;;5.53;4.57;;;5.70;99.90;;;-141.84;80.89;18925.81;4996414;28;20242;-63
2023/11/23 07:17:56;;;;;;;5.13;3.80;;;5.80;99.90;;;-141.84;81.21;18903.44;5011527;28;20226;-63
2023/11/23 07:20:24;;;;;;;5.57;4.13;;;5.80;99.90;;;-141.84;80.11;18891.25;5011630;28;20223;-63
2023/11/23 07:22:53;;;;;;;5.60;4.00;;;5.90;99.90;;;-141.84;80.53;18875.00;5012011;28;20277;-63
2023/11/23 07:25:21;;;;;;;4.67;3.60;;;5.90;99.90;;;-141.84;80.96;18931.91;5004797;28;20219;-62
2023/11/23 07:27:49;;;;;;;5.40;3.80;;;5.90;99.90;;;-141.84;81.27;18944.09;5000537;28;20613;-63
2023/11/23 07:30:20;;;;;;;4.30;3.77;;;5.90;99.90;;;-141.84;81.85;18954.25;5007156;28;20285;-63
2023/11/23 07:32:48;;;;;;;5.33;3.90;;;5.90;99.90;;;-141.84;81.70;18940.03;5000137;28;20653;-63
2023/11/23 07:35:17;;;;;;;4.70;3.73;;;5.90;99.90;;;-141.84;81.45;18950.19;5010876;28;20210;-63
2023/11/23 07:37:45;;;;;;;4.17;3.40;;;6.00;99.90;;;-141.84;81.59;18960.34;4995126;28;20233;-64
2023/11/23 07:40:14;;;;;;;5.57;3.90;;;;;;;-141.84;81.96;18958.31;4991570;28;20241;-63
2023/11/23 07:42:44;;;;;;;3.53;3.20;;;6.10;99.90;;;-141.84;82.83;18974.56;5010343;28;20238;-63
2023/11/23 07:45:13;;;;;;;5.33;3.60;;;6.10;99.90;;;-141.84;82.44;19009.09;5030491;28;20230;-64
2023/11/23 07:47:43;;;;;;;5.07;3.40;;;6.20;99.90;;;-141.84;82.37;18974.56;5030594;28;20236;-62
2023/11/23 07:50:11;;;;;;;3.20;2.83;;;6.30;99.90;;;-141.84;81.84;18998.94;5012771;28;20238;-64
2023/11/23 07:52:39;;;;;;;3.53;3.00;;;6.30;99.90;;;-141.84;82.55;19005.03;5010994;28;20663;-63
2023/11/23 07:55:10;;;;;;;4.13;3.20;;;;;;;-141.84;81.14;18942.06;5010583;28;20238;-63
2023/11/23 07:57:39;;;;;;;5.10;3.20;;;;;;;-141.84;81.79;18986.75;5009939;28;20222;-63
2023/11/23 08:00:09;;;;;;;4.07;3.13;;;;;;;-141.84;81.49;18974.56;4995271;28;20231;-61
2023/11/23 08:02:37;;;;;;;4.43;3.17;;;6.50;99.90;;;-141.84;80.95;18933.94;5005861;28;20236;-64
2023/11/23 08:05:09;;;;;;;5.17;3.73;;;6.60;99.90;;;-141.84;79.98;18931.91;5009206;28;20293;-63
2023/11/23 08:07:37;;;;;;;3.83;3.30;;;6.60;99.90;;;-141.84;80.19;18911.56;5002526;28;20188;-63
2023/11/23 08:10:08;;;;;;;4.20;3.53;;;6.60;99.90;;;-141.84;79.52;18887.19;4990933;28;20227;-62
2023/11/23 08:12:36;;;;;;;4.03;3.00;;;6.50;99.90;;;-141.84;79.50;18929.88;5007883;28;20219;-63
2023/11/23 08:15:06;;;;;;;4.23;3.63;;;;;;;-141.84;79.17;18907.50;5009322;28;20603;-63
2023/11/23 08:17:35;;;;;;;3.80;3.37;;;6.50;99.90;;;-141.84;79.03;18907.50;5010751;28;20598;-63
2023/11/23 08:20:07;;;;;;;4.43;3.40;;;6.50;99.90;;;-141.84;79.17;18907.50;5010556;28;20694;-64
2023/11/23 08:22:38;;;;;;;4.63;3.43;;;;;;;-141.84;78.50;18881.09;5010961;28;20596;-63
2023/11/23 08:25:08;;;;;;;4.83;3.73;;;;;;;-141.84;78.22;18862.81;5010965;28;20834;-63
2023/11/23 08:27:37;;;;;;;4.03;3.20;;;;;;;-141.84;78.15;18887.19;5010971;28;20234;-62
2023/11/23 08:30:08;;;;;;;3.90;3.20;;;;;;;-141.84;78.24;18883.13;5011174;28;20229;-63
2023/11/23 08:32:37;;;;;;;4.47;3.80;;;;;;;-141.84;78.67;18903.44;5011351;28;20231;-63
2023/11/23 08:35:08;;;;;;;4.03;3.23;;;;;;;-141.84;79.17;18917.66;5011631;28;20214;-64
2023/11/23 08:37:38;;;;;;;6.90;3.93;;;;;;;-141.84;78.51;18872.97;5011944;28;20191;-63
2023/11/23 08:40:09;;;;;;;3.77;3.20;;;;;;;-141.84;78.89;18893.28;5011233;28;20313;-62
2023/11/23 08:42:39;;;;;;;5.03;3.63;;;;;;;-141.84;78.34;18872.97;5019865;28;20230;-62
2023/11/23 08:45:09;;;;;;;3.97;3.33;;;;;;;-141.84;77.79;18899.38;5031004;28;20244;-63
2023/11/23 08:47:38;;;;;;;4.60;3.10;;;;;;;-141.84;78.14;18903.44;5023342;28;20246;-63
2023/11/23 08:50:09;;;;;;;4.33;3.60;;;;;;;-141.84;78.50;18897.34;5015219;28;20579;-63
2023/11/23 08:52:39;;;;;;;4.40;3.60;;;;;;;-141.84;78.28;18917.66;5015610;28;20238;-62
2023/11/23 08:55:09;;;;;;;3.90;3.17;;;;;;;-141.84;77.85;18917.66;5014953;28;20785;-62
2023/11/23 08:57:40;;;;;;;3.93;3.50;;;;;;;-141.84;77.89;18911.56;5015126;28;20227;-63
2023/11/23 09:00:11;;;;;;;4.07;3.60;;;;;;;-141.84;78.27;18923.78;5015025;28;20280;-62
2023/11/23 09:02:41;;;;;;;4.60;3.67;;;;;;;-141.84;78.43;18909.53;5014647;28;20289;-63
2023/11/23 09:05:11;;;;;;;4.47;3.47;;;;;;;-141.84;78.52;18875.00;5015083;28;20553;-63
2023/11/23 09:07:42;;;;;;;4.30;3.50;;;;;;;-141.84;78.31;18915.63;5014831;28;20674;-63
2023/11/23 09:10:12;;;;;;;4.07;3.57;;;;;;;-141.84;78.31;18899.38;5014762;28;20227;-63
2023/11/23 09:12:41;;;;;;;5.43;3.43;;;;;;;-141.84;77.69;18913.59;5023932;28;20318;-62
2023/11/23 09:15:13;;;;;;;4.27;3.40;;;;;;;-141.84;77.95;18929.88;5016064;28;20660;-66
2023/11/23 09:17:50;;;;;;;4.50;3.70;;;;;;;-141.84;77.81;18923.78;5014881;28;20230;-62
2023/11/23 09:20:19;;;;;;;5.13;3.80;;;;;;;-141.84;78.04;18927.84;5015089;28;20299;-63
2023/11/23 09:22:52;;;;;;;4.23;3.80;;;;;;;-141.84;77.51;18923.78;5015256;28;20312;-62
2023/11/23 09:25:59;;;;;;;3.80;3.40;;;;;;;-141.84;77.34;18929.88;5014551;28;20230;-63
2023/11/23 09:28:27;;;;;;;4.80;3.40;;;7.10;99.90;;;-141.84;77.43;18907.50;5014754;28;20230;-63
2023/11/23 09:30:55;;;;;;;4.77;3.43;;;7.20;99.90;;;-141.84;77.49;18942.06;5014525;28;20226;-63
2023/11/23 09:33:23;;;;;;;5.83;3.80;;;7.30;99.90;;;-141.84;77.68;18931.91;5014500;28;20281;-62
2023/11/23 09:35:54;;;;;;;4.87;3.50;;;7.30;99.90;;;-141.84;77.64;18935.97;5014407;28;20280;-63
2023/11/23 09:38:25;;;;;;;8.83;4.53;;;7.30;99.90;;;-141.84;78.41;18919.69;5014451;28;20583;-62
2023/11/23 09:40:59;;;;;;;6.27;3.73;;;7.30;99.90;;;-141.84;78.31;18950.19;5014818;28;20183;-62
2023/11/23 09:43:29;;;;;;;5.30;3.23;;;7.30;99.90;;;-141.84;79.29;18976.59;5025784;28;20618;-62
2023/11/23 09:45:58;;;;;;;4.10;3.40;;;7.30;99.90;;;-141.84;79.35;18948.16;5014193;28;20254;-62
2023/11/23 09:48:28;;;;;;;5.97;4.40;;;7.30;99.90;;;-141.84;80.00;18976.59;5014209;28;20230;-62
2023/11/23 09:50:57;;;;;;;4.23;3.47;;;7.10;99.90;;;-141.84;80.90;19015.19;5014466;28;20257;-63
2023/11/23 09:53:29;;;;;;;5.30;4.30;;;7.20;99.90;;;-141.84;81.17;19051.78;5013924;28;20226;-63
2023/11/23 09:55:59;;;;;;;4.40;3.67;;;7.20;99.90;;;-141.84;81.13;19049.75;5014597;28;20209;-62
2023/11/23 09:58:28;;;;;;;5.33;3.80;;;7.30;99.90;;;-141.84;82.43;19096.47;5014450;28;20635;-62
2023/11/23 10:00:57;;;;;;;5.80;3.70;;;7.20;99.90;;;-141.84;82.36;19102.56;5013046;28;20262;-63
2023/11/23 10:03:31;;;;;;;7.03;4.27;;;7.30;99.90;;;-141.84;82.17;19070.06;5013679;28;20596;-62
2023/11/23 10:05:59;;;;;;;5.07;4.03;;;7.30;99.90;;;-141.84;81.43;19057.88;5009769;28;20230;-63
2023/11/23 10:08:29;;;;;;;4.97;4.30;;;7.50;99.90;;;-141.84;82.33;19088.34;4994436;28;20246;-63
2023/11/23 10:11:02;;;;;;;4.87;4.20;;;7.50;99.90;;;-141.84;82.82;19102.56;4994442;28;20191;-63
2023/11/23 10:13:30;;;;;;;4.40;4.00;;;7.50;99.90;;;-141.84;82.28;19131.03;5021030;28;20654;-62
2023/11/23 10:15:58;;;;;;;4.03;3.63;;;7.60;99.90;;;-141.84;82.95;19120.88;5013682;28;20238;-62
2023/11/23 10:18:37;;;;;;;3.97;3.57;;;7.60;99.90;;;-141.84;82.74;19143.22;5013619;28;20943;-62
2023/11/23 10:21:05;;;;;;;4.60;3.70;;;7.70;99.90;;;-141.84;82.88;19131.03;5013597;28;20230;-62
2023/11/23 10:23:35;;;;;;;4.47;3.60;;;7.70;99.90;;;-141.84;82.53;19161.50;5013618;28;20223;-63
2023/11/23 10:26:03;;;;;;;4.50;4.00;;;7.70;99.90;;;-141.84;82.28;19137.13;5013626;28;20617;-63
2023/11/23 10:28:31;;;;;;;4.20;3.60;;;7.80;99.90;;;-141.84;81.52;19108.69;5014204;28;20612;-61